Aérodrome :
LOGIN :

S'inscrire | Disclaimer

   EN    FR    IT 

 










Légende :    VFR   VFR Marginal   IFR   IFR Intensif   IFR Très Intensif
Visi : 
Plafond : 
>= 8 km
>= 3000ft
5 à 8 km
1000 à 3000 ft
1500m à 5 km
500 à 1000 ft
800 à 1500m
200 à 500 ft
< 800m
< 200 ft
Symboles :   Orages  Brouillard  Fortes neiges  Fortes précipitations  Vent > 20 kt
SIGMETs :   Divers  Orages  Givrage  Turbulence  Onde Orograph.  Cendres Volcan.







- Altitude de l'aérodrome : 16 ft
- Code IATA : EAS


LESO - San Sebastian Fuenterrabia

DERNIER METAR :
  • 221600Z VRB02KT 9999 SCT040 09/05 Q1012

METARs EXPIRÉS :
  • 221530Z 32005G17KT 270V040 9999 FEW020 BKN039 08/04 Q1012
  • 221517Z VRB12G30KT 9000 3000E RA FEW020 BKN035 08/05 Q1012
  • 221500Z 32010KT 250V020 9999 FEW020 SCT033 10/05 Q1012
  • 221430Z 29005KT 210V340 8000 -DZ FEW019 BKN032 09/06 Q1012
  • 221400Z 25006KT 200V310 9999 SCT019 BKN032 08/06 Q1012
  • 221335Z VRB06G20KT 8000 2000E SHRA SCT016TCU BKN035 08/06 Q1013

TAF TAF LESO
Valide du 22 à 12h jusqu'au 23 à 12h UTC


221100Z 2212/2312 29012KT 9999 SCT020 BKN030 TX12/2306Z TN07/2212Z
TEMPO 2212/2312 29015G30KT
TEMPO 2303/2311 33028G43KT
TEMPO 2212/2312 3000 RA BKN014
PROB40
TEMPO 2300/2309 1500 SHRA RA SCT030TCU
Pas de NOTAMs connus pour ce terrain.
1 SIGMET publié pour la FIR Madrid (LECM) :
 
Onde orographique forte
LECM SIGMET 3 VALID 221300/221700 LEVA
LECM MADRID FIR/UIR SEV MTW FCST N OF LINE N4240 W001 - N4230 E00010 FL060/360 STNR NC=



MET'MAP, la Météo Aéronautique d'un coup d'oeil ! - Copyright ORBIFLY Décembre 2007 - Disclaimer

ORBIFLY MET'MAP TEAM :

Programmation & Développement : Alexandra Zaïnal
Conception & Développement : Baudouin d'Aumeries
Co-Programmation & Développement : Marc-Olivier Méhu
Soutien technique & logistique : Manuel Goepfert

Contact : metmap@orbifly.com




SOURCES & CREDITS :

   NOAA